Time;durP1;ratioP1;P1;durP2;ratioP2;P2;SDS_P1;SDS_P2;PMS_P1;PMS_P2;Temp;Humidity;BMP_temperature;BMP_pressure;BME280_temperature;BME280_humidity;BME280_pressure;Samples;Min_cycle;Max_cycle;Signal;HPM_P1;HPM_P2
2022/07/23 05:01:31;;;;;;;5.70;4.30;;;23.40;84.10;;;;;;5835812;23;20023;-77
2022/07/23 05:03:57;;;;;;;6.93;4.38;;;23.40;84.10;;;;;;4920505;29;20064;-68
2022/07/23 05:06:26;;;;;;;6.00;4.60;;;23.50;84.30;;;;;;4908729;29;20085;-70
2022/07/23 05:08:52;;;;;;;6.57;4.30;;;23.60;83.90;;;;;;4944901;29;20039;-71
2022/07/23 05:11:18;;;;;;;7.25;5.40;;;23.60;82.50;;;;;;4937347;29;20036;-70
2022/07/23 05:13:44;;;;;;;6.45;4.45;;;23.80;82.50;;;;;;4925515;29;20059;-69
2022/07/23 05:16:10;;;;;;;7.35;4.68;;;23.90;82.00;;;;;;4924424;29;20049;-71
2022/07/23 05:18:36;;;;;;;6.13;4.10;;;23.90;82.00;;;;;;4928738;29;20043;-70
2022/07/23 05:21:02;;;;;;;7.45;4.13;;;24.00;81.30;;;;;;4927884;29;20035;-70
2022/07/23 05:23:28;;;;;;;6.47;4.28;;;24.10;80.70;;;;;;4928390;29;20031;-70
2022/07/23 05:25:54;;;;;;;6.80;3.95;;;24.10;79.90;;;;;;4927387;29;20028;-70
2022/07/23 05:28:20;;;;;;;5.03;4.05;;;24.00;79.80;;;;;;4928229;29;20301;-72
2022/07/23 05:30:46;;;;;;;6.65;4.07;;;24.00;80.30;;;;;;4927799;29;20036;-69
2022/07/23 05:33:21;;;;;;;4.88;3.97;;;24.00;80.30;;;;;;4928354;29;20039;-69
2022/07/23 05:35:50;;;;;;;5.65;4.38;;;24.00;80.30;;;;;;4917207;29;20080;-72
2022/07/23 05:38:36;;;;;;;5.00;4.10;;;24.30;78.80;;;;;;4906936;29;20065;-70
2022/07/23 05:41:03;;;;;;;6.05;4.18;;;24.50;78.90;;;;;;4921100;29;20033;-70
2022/07/23 05:43:29;;;;;;;5.30;4.03;;;24.60;78.40;;;;;;4906042;29;20220;-69
2022/07/23 05:45:57;;;;;;;5.53;4.20;;;24.60;78.30;;;;;;4905067;29;20697;-70
2022/07/23 05:48:23;;;;;;;5.80;4.28;;;24.60;78.70;;;;;;4890193;29;20029;-69
2022/07/23 05:50:58;;;;;;;5.30;3.97;;;24.60;79.20;;;;;;4905538;29;20032;-71
2022/07/23 05:53:30;;;;;;;6.78;4.40;;;24.60;79.50;;;;;;4890434;29;20093;-72
2022/07/23 05:56:06;;;;;;;5.47;3.92;;;24.70;80.00;;;;;;4905515;29;20045;-70
2022/07/23 05:58:31;;;;;;;5.65;4.00;;;24.70;79.80;;;;;;4905520;29;20037;-71
2022/07/23 06:00:57;;;;;;;6.63;4.22;;;24.80;79.30;;;;;;4904344;29;20071;-72
2022/07/23 06:03:23;;;;;;;5.70;4.30;;;24.80;78.70;;;;;;4937802;29;20050;-71
2022/07/23 06:05:49;;;;;;;5.38;3.80;;;24.70;78.40;;;;;;4946891;29;20062;-70
2022/07/23 06:08:16;;;;;;;5.55;4.30;;;24.70;78.90;;;;;;4946799;29;20041;-69
2022/07/23 06:10:42;;;;;;;7.38;4.75;;;24.70;78.80;;;;;;4946841;29;20039;-69
2022/07/23 06:13:08;;;;;;;6.20;4.20;;;24.70;78.50;;;;;;4946189;29;20032;-71
2022/07/23 06:15:34;;;;;;;4.70;4.20;;;24.70;78.00;;;;;;4963588;28;20046;-69
2022/07/23 06:18:00;;;;;;;5.05;4.30;;;24.60;78.60;;;;;;4946331;29;20217;-69
2022/07/23 06:20:26;;;;;;;5.47;4.28;;;24.60;78.60;;;;;;4946644;29;20039;-70
2022/07/23 06:22:52;;;;;;;5.40;4.10;;;24.70;78.00;;;;;;4945994;29;20253;-69
2022/07/23 06:25:19;;;;;;;7.07;4.45;;;24.70;77.80;;;;;;4946710;29;20102;-69
2022/07/23 06:27:46;;;;;;;5.43;4.43;;;24.70;77.60;;;;;;4946528;29;20107;-70
2022/07/23 06:30:13;;;;;;;6.70;4.60;;;24.80;77.80;;;;;;4962955;28;20050;-69
2022/07/23 06:32:38;;;;;;;5.82;4.25;;;24.90;78.30;;;;;;4963972;29;20071;-72
2022/07/23 06:35:05;;;;;;;6.15;4.55;;;25.00;78.60;;;;;;4963045;29;20035;-72
2022/07/23 06:37:31;;;;;;;6.47;4.50;;;25.10;78.20;;;;;;4963806;29;20034;-80
2022/07/23 06:39:56;;;;;;;8.18;4.18;;;25.30;77.70;;;;;;4946201;29;20034;-72
2022/07/23 06:42:23;;;;;;;7.40;4.50;;;25.30;77.30;;;;;;4946586;29;20183;-72
2022/07/23 06:44:56;;;;;;;5.78;4.18;;;25.40;77.40;;;;;;4946174;29;20173;-73
2022/07/23 06:47:22;;;;;;;5.82;4.43;;;25.50;77.40;;;;;;4945860;29;20039;-72
2022/07/23 06:49:47;;;;;;;6.20;4.45;;;25.60;76.10;;;;;;4946893;29;20311;-70
2022/07/23 06:52:13;;;;;;;7.15;4.45;;;25.90;76.00;;;;;;4963008;29;20063;-71
2022/07/23 06:54:39;;;;;;;7.90;3.90;;;26.10;74.70;;;;;;4963906;29;20086;-71
2022/07/23 06:57:04;;;;;;;6.55;4.07;;;26.20;74.30;;;;;;4962645;29;20030;-72
2022/07/23 06:59:30;;;;;;;4.93;3.90;;;26.00;73.40;;;;;;4963901;29;20035;-70
2022/07/23 07:01:57;;;;;;;5.70;4.40;;;25.90;74.00;;;;;;4962670;29;20047;-72
2022/07/23 07:04:26;;;;;;;5.25;4.18;;;25.70;74.70;;;;;;4947349;29;20039;-72
2022/07/23 07:06:51;;;;;;;;;;;25.60;75.00;;;;;;4944825;29;20444;-73
2022/07/23 07:09:17;;;;;;;7.07;4.40;;;25.40;75.50;;;;;;4944717;29;19906;-71
2022/07/23 07:11:44;;;;;;;5.18;4.53;;;25.30;76.00;;;;;;4947952;29;20047;-71
2022/07/23 07:14:10;;;;;;;6.18;4.55;;;25.30;76.30;;;;;;4947028;29;20074;-70
2022/07/23 07:16:36;;;;;;;8.05;4.75;;;25.20;76.60;;;;;;4947322;29;20043;-71
2022/07/23 07:19:01;;;;;;;6.13;4.43;;;25.30;76.30;;;;;;4946858;29;20086;-71
2022/07/23 07:21:27;;;;;;;5.25;4.50;;;25.50;76.00;;;;;;4947375;29;20058;-71
2022/07/23 07:23:53;;;;;;;6.35;4.53;;;25.30;76.40;;;;;;4947594;29;20031;-71
2022/07/23 07:26:19;;;;;;;6.93;4.80;;;25.10;77.40;;;;;;4947028;29;20309;-72
2022/07/23 07:28:44;;;;;;;5.97;4.25;;;24.90;77.90;;;;;;4947423;29;20410;-72
2022/07/23 07:31:10;;;;;;;7.47;4.57;;;24.70;78.40;;;;;;4946344;29;20043;-71
2022/07/23 07:33:36;;;;;;;7.47;4.80;;;24.50;79.10;;;;;;4947767;29;20042;-72
2022/07/23 07:36:01;;;;;;;6.63;5.20;;;24.40;79.80;;;;;;4929947;29;20038;-69
2022/07/23 07:38:27;;;;;;;7.05;4.97;;;24.40;82.80;;;;;;4947396;29;20043;-71
2022/07/23 07:40:53;;;;;;;8.60;4.88;;;24.40;82.10;;;;;;4947551;29;20032;-72
2022/07/23 07:43:19;;;;;;;6.25;4.22;;;24.30;82.10;;;;;;4946736;29;20229;-72
2022/07/23 07:45:44;;;;;;;5.53;4.18;;;24.40;81.20;;;;;;4946855;29;20038;-72
2022/07/23 07:48:10;;;;;;;5.38;4.80;;;24.50;80.90;;;;;;4946707;29;20103;-70
2022/07/23 07:50:36;;;;;;;8.18;4.82;;;24.60;81.10;;;;;;4947587;29;20043;-71
2022/07/23 07:53:02;;;;;;;5.88;4.28;;;24.60;81.60;;;;;;4946326;29;20041;-70
2022/07/23 07:55:28;;;;;;;6.40;4.53;;;24.60;81.10;;;;;;4947229;29;20091;-71
2022/07/23 07:57:54;;;;;;;6.53;4.43;;;24.60;81.50;;;;;;4946963;29;20225;-71
2022/07/23 08:00:19;;;;;;;6.80;4.72;;;24.60;80.50;;;;;;4945985;29;20016;-71
2022/07/23 08:02:51;;;;;;;5.32;4.38;;;24.50;80.80;;;;;;4946743;29;20073;-70
2022/07/23 08:05:34;;;;;;;4.97;4.38;;;24.40;81.40;;;;;;4946285;29;20040;-71
2022/07/23 08:08:00;;;;;;;5.70;3.95;;;24.40;81.80;;;;;;4946095;29;20098;-72
2022/07/23 08:10:27;;;;;;;5.63;4.47;;;24.60;81.30;;;;;;4946699;29;20298;-72
2022/07/23 08:12:56;;;;;;;6.40;4.22;;;24.90;80.50;;;;;;4929564;29;20051;-72
2022/07/23 08:15:23;;;;;;;5.45;4.32;;;25.30;79.20;;;;;;4945356;29;20648;-70
2022/07/23 08:17:49;;;;;;;6.25;4.63;;;25.50;78.80;;;;;;4929461;29;20051;-69
2022/07/23 08:20:17;;;;;;;6.75;4.60;;;25.70;78.40;;;;;;4928882;29;20397;-73
2022/07/23 08:22:54;;;;;;;5.50;4.20;;;25.90;77.20;;;;;;4946189;29;20260;-72
2022/07/23 08:25:24;;;;;;;5.22;4.10;;;25.90;77.50;;;;;;4945569;29;20063;-71
2022/07/23 08:27:50;;;;;;;5.65;4.07;;;25.60;77.80;;;;;;4945869;29;20032;-72
2022/07/23 08:30:17;;;;;;;5.18;4.10;;;25.30;78.00;;;;;;4945335;29;20019;-71
2022/07/23 08:32:52;;;;;;;5.15;4.03;;;25.30;78.30;;;;;;4945821;29;20040;-72
2022/07/23 08:35:29;;;;;;;4.47;3.58;;;25.30;78.80;;;;;;4945411;29;20036;-72
2022/07/23 08:37:56;;;;;;;5.05;3.88;;;25.30;78.10;;;;;;4946287;29;20235;-71
2022/07/23 08:40:23;;;;;;;5.07;4.40;;;25.20;77.80;;;;;;4945904;29;20023;-70
2022/07/23 08:42:50;;;;;;;5.78;4.50;;;25.20;78.40;;;;;;4929167;29;20107;-73
2022/07/23 08:45:20;;;;;;;5.90;4.85;;;25.20;79.50;;;;;;4944967;29;20028;-73
2022/07/23 08:47:49;;;;;;;7.85;4.97;;;25.20;79.00;;;;;;4946246;29;20323;-71
2022/07/23 08:50:15;;;;;;;5.68;4.47;;;25.30;78.50;;;;;;4945590;29;20035;-74
2022/07/23 08:52:41;;;;;;;4.65;4.20;;;25.50;78.30;;;;;;4949218;29;20027;-76
2022/07/23 08:55:08;;;;;;;6.25;4.70;;;25.80;77.90;;;;;;4945125;29;20035;-75
2022/07/23 08:57:34;;;;;;;6.05;4.00;;;26.00;77.20;;;;;;4945430;29;20023;-75
2022/07/23 09:00:01;;;;;;;6.03;4.32;;;26.20;76.20;;;;;;4945680;29;20051;-74
2022/07/23 09:02:27;;;;;;;6.38;4.28;;;26.30;75.50;;;;;;4945930;29;20055;-75
2022/07/23 09:04:53;;;;;;;7.03;4.22;;;26.50;75.70;;;;;;4964451;29;20305;-75
2022/07/23 09:07:19;;;;;;;4.78;4.20;;;26.90;74.80;;;;;;4962528;29;20077;-76
2022/07/23 09:09:44;;;;;;;5.18;4.00;;;27.20;73.40;;;;;;4947477;29;20047;-74
2022/07/23 09:12:10;;;;;;;5.15;3.92;;;27.50;72.20;;;;;;4964134;29;20090;-74
2022/07/23 09:14:46;;;;;;;5.18;4.30;;;27.50;71.90;;;;;;4964313;29;20106;-75
2022/07/23 09:17:14;;;;;;;5.82;4.40;;;27.70;71.00;;;;;;4963069;28;20047;-75
2022/07/23 09:19:42;;;;;;;6.10;5.00;;;27.90;70.90;;;;;;4936252;29;20325;-74
2022/07/23 09:22:23;;;;;;;5.38;4.38;;;28.00;71.20;;;;;;4945113;29;20815;-77
2022/07/23 09:25:11;;;;;;;5.10;3.97;;;28.20;70.80;;;;;;4945020;29;20083;-76
2022/07/23 09:28:02;;;;;;;6.07;4.50;;;28.50;69.40;;;;;;4928282;29;20062;-74
2022/07/23 09:30:30;;;;;;;5.50;4.45;;;28.80;68.70;;;;;;4944091;29;20345;-75
2022/07/23 09:33:12;;;;;;;5.93;4.40;;;29.30;67.80;;;;;;4943930;29;20050;-74
2022/07/23 09:35:53;;;;;;;4.75;3.92;;;29.70;67.20;;;;;;4944818;29;20040;-74
2022/07/23 09:38:21;;;;;;;6.22;4.20;;;30.00;66.30;;;;;;4944687;29;20028;-75
2022/07/23 09:41:05;;;;;;;;;;;30.10;65.80;;;;;;4946442;29;20039;-74
2022/07/23 09:43:31;;;;;;;6.15;3.95;;;29.90;66.00;;;;;;4947616;29;19906;-74
2022/07/23 09:46:16;;;;;;;9.65;4.40;;;29.90;66.00;;;;;;4947841;29;20042;-74
2022/07/23 09:48:42;;;;;;;7.63;3.90;;;30.00;65.60;;;;;;4948051;29;20038;-73
2022/07/23 09:51:08;;;;;;;6.68;4.20;;;29.90;65.70;;;;;;4944872;29;20032;-75
2022/07/23 09:53:34;;;;;;;7.72;4.10;;;29.80;66.10;;;;;;4944565;29;20034;-78
2022/07/23 09:56:01;;;;;;;5.15;3.85;;;29.90;65.10;;;;;;4953643;29;20332;-75
2022/07/23 09:58:28;;;;;;;5.05;4.10;;;29.50;65.80;;;;;;4945826;29;20027;-75
2022/07/23 10:00:55;;;;;;;5.28;4.07;;;29.40;65.90;;;;;;4961852;28;20114;-75
2022/07/23 10:03:23;;;;;;;4.45;3.75;;;29.50;65.80;;;;;;4962973;29;20106;-80
2022/07/23 10:06:09;;;;;;;5.40;4.15;;;29.70;65.30;;;;;;4956163;29;20376;-78
2022/07/23 10:08:58;;;;;;;5.65;4.50;;;29.70;64.50;;;;;;4946750;29;20332;-77
2022/07/23 10:11:51;;;;;;;5.47;3.78;;;29.70;64.80;;;;;;4932005;29;20035;-77
2022/07/23 10:14:39;;;;;;;5.40;4.13;;;29.80;64.50;;;;;;4963847;29;20233;-78
2022/07/23 10:17:08;;;;;;;4.35;3.88;;;29.90;63.90;;;;;;4962524;28;20130;-78
2022/07/23 10:19:39;;;;;;;4.50;4.10;;;30.00;64.00;;;;;;4963351;29;20109;-77
2022/07/23 10:22:11;;;;;;;5.35;4.15;;;30.10;62.80;;;;;;4943480;29;20031;-77
2022/07/23 10:24:37;;;;;;;4.65;3.80;;;30.20;62.60;;;;;;4963676;29;20063;-82
2022/07/23 10:27:27;;;;;;;5.93;3.63;;;30.20;62.60;;;;;;4963669;29;20043;-78
2022/07/23 10:30:11;;;;;;;4.35;3.95;;;30.40;63.10;;;;;;4963818;29;20101;-77
2022/07/23 10:32:53;;;;;;;5.00;3.92;;;30.30;62.20;;;;;;4946615;29;20043;-78
2022/07/23 10:35:22;;;;;;;5.22;3.97;;;30.40;62.60;;;;;;4962992;29;20043;-79
2022/07/23 10:37:56;;;;;;;4.43;3.80;;;30.90;61.20;;;;;;4946521;29;20051;-79
2022/07/23 10:40:23;;;;;;;5.45;4.07;;;31.00;60.80;;;;;;4947135;29;20098;-79
2022/07/23 10:42:58;;;;;;;4.95;3.90;;;31.00;60.50;;;;;;4944147;29;20039;-80
2022/07/23 10:45:36;;;;;;;4.85;4.22;;;30.90;60.50;;;;;;4944650;29;20032;-78
2022/07/23 10:48:21;;;;;;;;;;;30.80;61.90;;;;;;4948581;29;20043;-77
2022/07/23 10:51:13;;;;;;;4.82;3.72;;;30.70;62.20;;;;;;4948015;29;19982;-80
2022/07/23 10:53:51;;;;;;;4.20;3.65;;;31.00;62.30;;;;;;4950067;29;20040;-79
2022/07/23 10:56:50;;;;;;;4.45;3.63;;;31.00;61.60;;;;;;4946527;29;20091;-78
2022/07/23 10:59:18;;;;;;;6.47;3.60;;;31.00;61.10;;;;;;4953402;29;20039;-78
2022/07/23 11:01:46;;;;;;;4.80;4.20;;;31.10;61.40;;;;;;4965905;29;20245;-77
2022/07/23 11:04:13;;;;;;;5.18;3.88;;;31.20;61.50;;;;;;4962930;29;20055;-79
2022/07/23 11:06:51;;;;;;;5.55;3.80;;;31.10;62.00;;;;;;4949896;29;20320;-78
2022/07/23 11:09:31;;;;;;;4.20;3.80;;;31.20;62.00;;;;;;4949285;29;20039;-78
2022/07/23 11:12:28;;;;;;;5.60;3.55;;;31.30;61.50;;;;;;4949811;29;20045;-76
2022/07/23 11:15:10;;;;;;;3.83;3.40;;;31.50;58.50;;;;;;4973872;28;20027;-79
2022/07/23 11:17:35;;;;;;;4.32;3.30;;;31.80;57.50;;;;;;4986171;28;20077;-77
2022/07/23 11:20:15;;;;;;;4.75;3.65;;;32.30;57.30;;;;;;4985242;28;20297;-78
2022/07/23 11:22:47;;;;;;;5.82;4.60;;;32.50;58.80;;;;;;4968733;28;20034;-78
2022/07/23 11:25:23;;;;;;;5.95;4.32;;;32.70;58.60;;;;;;4968435;28;20347;-79
2022/07/23 11:27:52;;;;;;;5.95;4.03;;;32.90;58.00;;;;;;4985984;28;20038;-80
2022/07/23 11:30:26;;;;;;;4.03;3.50;;;33.40;58.00;;;;;;4984461;28;20035;-79
2022/07/23 11:33:05;;;;;;;4.28;3.40;;;33.40;57.80;;;;;;4986024;28;20039;-77
2022/07/23 11:35:31;;;;;;;4.45;3.80;;;33.50;57.70;;;;;;4984345;28;20074;-79
2022/07/23 11:38:23;;;;;;;5.55;3.83;;;33.60;58.50;;;;;;4969252;28;20259;-79
2022/07/23 11:40:54;;;;;;;4.53;3.70;;;33.90;57.00;;;;;;4952919;28;20198;-78
2022/07/23 11:43:21;;;;;;;6.13;3.55;;;33.90;56.70;;;;;;4985815;28;20027;-78
2022/07/23 11:45:52;;;;;;;6.05;3.80;;;34.30;56.40;;;;;;4984177;28;20063;-78
2022/07/23 11:48:26;;;;;;;5.68;3.40;;;34.60;55.90;;;;;;4987244;28;20035;-78
2022/07/23 11:50:53;;;;;;;4.72;3.53;;;34.80;55.50;;;;;;4986204;28;20043;-80
2022/07/23 11:53:48;;;;;;;5.23;3.73;;;34.50;55.80;;;;;;4968151;28;20030;-79
2022/07/23 11:56:16;;;;;;;5.22;3.60;;;35.40;55.20;;;;;;4982670;28;20105;-77
2022/07/23 11:58:57;;;;;;;3.83;3.42;;;35.80;54.60;;;;;;4985962;28;20105;-79
2022/07/23 12:01:23;;;;;;;4.85;3.42;;;36.60;53.30;;;;;;4966972;28;20093;-78
2022/07/23 12:03:52;;;;;;;3.85;3.28;;;37.10;53.00;;;;;;4956825;29;20043;-79
2022/07/23 12:06:18;;;;;;;3.63;3.15;;;37.50;52.60;;;;;;4964407;29;20043;-79
2022/07/23 12:08:44;;;;;;;4.10;3.33;;;37.70;52.20;;;;;;4965909;29;20037;-78
2022/07/23 12:11:12;;;;;;;3.88;3.20;;;38.30;51.70;;;;;;4964879;29;20108;-80
2022/07/23 12:13:38;;;;;;;3.78;3.15;;;38.70;51.30;;;;;;4948603;29;20262;-79
2022/07/23 12:16:05;;;;;;;5.15;3.33;;;39.40;50.80;;;;;;4965383;28;20047;-79
2022/07/23 12:18:31;;;;;;;5.35;3.30;;;39.60;50.00;;;;;;4965816;29;20344;-76
2022/07/23 12:21:02;;;;;;;4.60;3.55;;;40.20;49.50;;;;;;4949029;29;20027;-79
2022/07/23 12:23:28;;;;;;;3.95;3.53;;;40.50;49.10;;;;;;4965610;29;20038;-78
2022/07/23 12:25:54;;;;;;;4.30;3.47;;;40.50;49.20;;;;;;4965704;29;20031;-76
2022/07/23 12:28:28;;;;;;;3.83;3.30;;;40.20;48.80;;;;;;4965540;29;20026;-80
2022/07/23 12:30:56;;;;;;;4.55;3.60;;;39.60;49.50;;;;;;4965040;28;20320;-78
2022/07/23 12:33:22;;;;;;;5.00;3.50;;;39.10;50.50;;;;;;4965046;29;20034;-78
2022/07/23 12:35:49;;;;;;;3.80;3.40;;;39.70;50.10;;;;;;4965368;29;20027;-78
2022/07/23 12:38:17;;;;;;;4.05;3.42;;;39.80;49.90;;;;;;4948320;29;20039;-77
2022/07/23 12:40:48;;;;;;;4.50;3.47;;;40.60;47.80;;;;;;4964194;29;20028;-76
2022/07/23 12:43:24;;;;;;;4.28;3.35;;;40.50;48.10;;;;;;4958130;28;20067;-80
2022/07/23 12:46:14;;;;;;;4.70;3.28;;;40.60;48.00;;;;;;4963716;28;20031;-79
2022/07/23 12:48:56;;;;;;;5.50;3.55;;;40.80;47.70;;;;;;4944862;29;20035;-78
2022/07/23 12:51:32;;;;;;;5.32;3.50;;;41.20;47.90;;;;;;4927014;29;20042;-80
2022/07/23 12:54:06;;;;;;;3.80;3.40;;;41.80;47.40;;;;;;4960994;29;20050;-80
2022/07/23 12:56:46;;;;;;;3.70;3.35;;;41.60;47.40;;;;;;4960558;29;20031;-79
2022/07/23 12:59:18;;;;;;;5.38;3.58;;;42.50;47.10;;;;;;4963517;29;20050;-79
2022/07/23 13:01:57;;;;;;;3.72;3.33;;;42.40;46.70;;;;;;4961156;28;20058;-80
2022/07/23 13:04:26;;;;;;;6.07;3.65;;;41.50;47.00;;;;;;4962836;29;20039;-81
2022/07/23 13:06:58;;;;;;;5.53;4.10;;;40.10;48.40;;;;;;4959843;28;20320;-82
2022/07/23 13:09:26;;;;;;;4.18;3.78;;;39.40;49.20;;;;;;4962121;29;20031;-78
2022/07/23 13:11:54;;;;;;;3.97;3.53;;;39.20;49.50;;;;;;4963746;29;20347;-80
2022/07/23 13:14:21;;;;;;;4.28;3.75;;;39.20;49.60;;;;;;4946375;29;20059;-80
2022/07/23 13:16:51;;;;;;;3.95;3.58;;;39.70;49.50;;;;;;4961779;29;20146;-80
2022/07/23 13:19:20;;;;;;;4.07;3.67;;;40.20;48.70;;;;;;4961871;29;20106;-80
2022/07/23 13:21:46;;;;;;;4.20;3.50;;;40.50;47.70;;;;;;4963224;29;20110;-79
2022/07/23 13:24:20;;;;;;;4.03;3.25;;;40.80;47.20;;;;;;4962751;29;20221;-79
2022/07/23 13:26:46;;;;;;;4.03;3.47;;;41.10;47.20;;;;;;4962972;29;20078;-79
2022/07/23 13:29:15;;;;;;;;;;;41.80;46.90;;;;;;4930928;29;20098;-79
2022/07/23 13:31:41;;;;;;;4.82;3.70;;;42.80;46.60;;;;;;4961616;28;19934;-79
2022/07/23 13:34:07;;;;;;;3.90;3.50;;;43.80;45.50;;;;;;4962955;29;20043;-79
2022/07/23 13:36:36;;;;;;;4.13;3.45;;;44.20;45.00;;;;;;4963229;29;20090;-79
2022/07/23 13:39:03;;;;;;;5.63;3.53;;;44.90;44.70;;;;;;4946272;29;20087;-78
2022/07/23 13:41:28;;;;;;;4.57;3.53;;;44.80;44.00;;;;;;4962769;29;20090;-78
2022/07/23 13:43:55;;;;;;;3.53;3.15;;;44.20;44.10;;;;;;4962272;29;20031;-79
2022/07/23 13:46:21;;;;;;;4.30;3.40;;;44.10;44.60;;;;;;4943389;29;20043;-79
2022/07/23 13:48:56;;;;;;;6.43;3.40;;;45.10;44.20;;;;;;4944005;29;20043;-79
2022/07/23 13:51:23;;;;;;;4.32;3.63;;;46.10;43.70;;;;;;4957620;29;20090;-79
2022/07/23 13:53:59;;;;;;;3.88;3.17;;;46.50;43.20;;;;;;4945805;29;20023;-79
2022/07/23 13:56:26;;;;;;;;;;;46.80;43.10;;;;;;4946576;29;20340;-79
2022/07/23 13:58:58;;;;;;;3.90;3.50;;;47.30;42.80;;;;;;4945849;29;19906;-79
2022/07/23 14:01:23;;;;;;;5.20;3.40;;;47.00;42.30;;;;;;4944499;28;20050;-78
2022/07/23 14:03:49;;;;;;;6.93;3.45;;;46.50;42.60;;;;;;4946534;29;20039;-79
2022/07/23 14:06:15;;;;;;;4.70;3.40;;;47.20;43.00;;;;;;4928205;29;20079;-80
2022/07/23 14:08:41;;;;;;;4.15;3.72;;;46.80;42.60;;;;;;4953771;29;20043;-78
2022/07/23 14:11:06;;;;;;;4.20;3.80;;;46.60;43.00;;;;;;4916657;29;20344;-79
2022/07/23 14:13:32;;;;;;;4.75;4.00;;;44.10;44.10;;;;;;4935972;29;20028;-79
2022/07/23 14:15:58;;;;;;;4.60;3.72;;;42.30;45.60;;;;;;4942834;29;20038;-78
2022/07/23 14:18:24;;;;;;;5.57;4.72;;;40.70;46.90;;;;;;4939377;29;20136;-79
2022/07/23 14:20:49;;;;;;;5.88;4.22;;;39.80;48.10;;;;;;4964483;29;20031;-79
2022/07/23 14:23:15;;;;;;;4.63;4.10;;;39.00;47.80;;;;;;4962604;29;20031;-79
2022/07/23 14:25:41;;;;;;;4.88;4.35;;;38.30;48.60;;;;;;4962106;29;20027;-78
2022/07/23 14:28:06;;;;;;;6.72;4.40;;;38.30;48.30;;;;;;4963391;29;20301;-80
2022/07/23 14:30:32;;;;;;;4.65;4.25;;;37.90;49.30;;;;;;4944759;29;20109;-78
2022/07/23 14:32:58;;;;;;;4.88;4.20;;;37.90;48.80;;;;;;4946168;29;20035;-79
2022/07/23 14:35:24;;;;;;;5.10;4.10;;;39.40;47.90;;;;;;4962994;29;20031;-79
2022/07/23 14:37:49;;;;;;;4.47;3.83;;;42.00;46.00;;;;;;4963159;29;20035;-78
2022/07/23 14:40:15;;;;;;;4.85;3.85;;;44.20;44.70;;;;;;4947466;29;20275;-78
2022/07/23 14:42:41;;;;;;;4.35;3.90;;;45.30;42.70;;;;;;4927240;29;20309;-78
2022/07/23 14:45:07;;;;;;;4.10;3.70;;;44.30;43.00;;;;;;4951986;28;20050;-73
2022/07/23 14:47:32;;;;;;;4.47;3.78;;;44.00;43.50;;;;;;4965009;28;20027;-75
2022/07/23 14:49:58;;;;;;;6.68;3.97;;;43.00;44.40;;;;;;4984343;28;20198;-73
2022/07/23 14:52:24;;;;;;;4.65;3.90;;;42.40;45.60;;;;;;4982775;28;20053;-75
2022/07/23 14:54:50;;;;;;;4.25;3.85;;;43.70;44.30;;;;;;4982929;28;20105;-74
2022/07/23 14:57:15;;;;;;;3.90;3.60;;;45.00;43.00;;;;;;4983320;28;20035;-76
2022/07/23 14:59:42;;;;;;;4.03;3.63;;;44.40;42.90;;;;;;4982496;28;20095;-74
2022/07/23 15:02:08;;;;;;;6.32;4.20;;;42.50;44.10;;;;;;4981797;28;20047;-75
2022/07/23 15:04:34;;;;;;;4.63;3.40;;;42.70;44.20;;;;;;4964621;28;20041;-75
2022/07/23 15:07:00;;;;;;;4.55;3.50;;;43.50;44.00;;;;;;4963679;29;20042;-76
2022/07/23 15:09:25;;;;;;;3.92;3.40;;;44.80;42.90;;;;;;4963027;29;20037;-76
2022/07/23 15:11:51;;;;;;;3.90;3.47;;;45.90;42.00;;;;;;4963134;29;20075;-73
2022/07/23 15:14:17;;;;;;;4.15;3.38;;;47.10;41.40;;;;;;4963359;29;20027;-75
2022/07/23 15:16:42;;;;;;;4.38;3.35;;;47.10;41.30;;;;;;4962208;28;20044;-74
2022/07/23 15:19:08;;;;;;;4.32;3.70;;;45.20;42.10;;;;;;4963231;29;20047;-73
2022/07/23 15:21:34;;;;;;;6.13;3.97;;;43.40;43.60;;;;;;4945779;29;20035;-75
2022/07/23 15:24:00;;;;;;;5.40;3.63;;;43.90;44.00;;;;;;4963248;29;20054;-76
2022/07/23 15:26:29;;;;;;;5.88;4.05;;;44.90;42.60;;;;;;4962814;29;20031;-75
2022/07/23 15:28:55;;;;;;;4.32;3.45;;;45.40;42.20;;;;;;4963367;29;20031;-76
2022/07/23 15:31:21;;;;;;;5.00;3.90;;;43.80;42.30;;;;;;4965048;28;20070;-76
2022/07/23 15:33:47;;;;;;;4.55;3.80;;;41.20;44.60;;;;;;4965961;29;20026;-76
2022/07/23 15:36:13;;;;;;;5.50;4.05;;;39.20;46.60;;;;;;4966791;29;20030;-76
2022/07/23 15:38:39;;;;;;;4.63;4.13;;;37.90;48.10;;;;;;4966250;29;20047;-76
2022/07/23 15:41:05;;;;;;;5.63;4.03;;;37.40;49.00;;;;;;4966943;29;20368;-75
2022/07/23 15:43:30;;;;;;;7.47;4.47;;;37.50;48.80;;;;;;4965776;29;20054;-76
2022/07/23 15:45:57;;;;;;;7.45;4.53;;;36.90;49.50;;;;;;4965782;28;20031;-76
2022/07/23 15:48:22;;;;;;;5.22;4.07;;;38.00;49.00;;;;;;4966399;29;20023;-74
2022/07/23 15:50:49;;;;;;;4.97;4.32;;;39.80;47.20;;;;;;4948579;29;20193;-75
2022/07/23 15:53:15;;;;;;;6.03;4.22;;;40.20;46.80;;;;;;4966383;29;20260;-75
2022/07/23 15:55:43;;;;;;;4.43;4.03;;;41.40;45.90;;;;;;4965763;29;20027;-76
2022/07/23 15:58:10;;;;;;;5.03;4.07;;;42.50;44.80;;;;;;4966465;29;20030;-76
2022/07/23 16:00:35;;;;;;;5.13;4.50;;;43.70;43.80;;;;;;4964914;28;20035;-75
2022/07/23 16:03:01;;;;;;;4.80;3.42;;;45.00;43.40;;;;;;4965616;29;20055;-76
2022/07/23 16:05:32;;;;;;;3.67;3.20;;;45.80;42.00;;;;;;4965724;29;20070;-75
2022/07/23 16:08:03;;;;;;;4.25;3.42;;;45.70;42.00;;;;;;4966277;29;20046;-76
2022/07/23 16:10:29;;;;;;;5.65;3.60;;;45.70;41.80;;;;;;4948733;29;20074;-75
2022/07/23 16:12:55;;;;;;;4.80;3.45;;;45.50;42.20;;;;;;4965979;29;20162;-75
2022/07/23 16:15:21;;;;;;;5.60;4.03;;;45.30;42.10;;;;;;4965575;29;20332;-75
2022/07/23 16:17:47;;;;;;;4.28;3.83;;;45.30;42.30;;;;;;4965383;29;20424;-76
2022/07/23 16:20:12;;;;;;;4.95;3.72;;;45.30;42.20;;;;;;4965899;29;20054;-75
2022/07/23 16:22:39;;;;;;;4.63;3.75;;;45.10;42.10;;;;;;4965621;29;20324;-75
2022/07/23 16:25:06;;;;;;;4.90;3.40;;;44.60;42.30;;;;;;4965773;29;20041;-76
2022/07/23 16:27:33;;;;;;;3.95;3.50;;;44.80;42.90;;;;;;4966183;29;20270;-76
2022/07/23 16:29:59;;;;;;;4.40;4.00;;;45.40;42.30;;;;;;4965957;29;20310;-75
2022/07/23 16:32:25;;;;;;;5.45;3.92;;;45.20;42.30;;;;;;4965329;29;20047;-76
2022/07/23 16:34:51;;;;;;;4.10;3.65;;;44.50;42.50;;;;;;4965378;29;20256;-78
2022/07/23 16:37:17;;;;;;;5.07;3.60;;;44.40;43.10;;;;;;4965612;29;20039;-77
2022/07/23 16:39:42;;;;;;;4.55;3.92;;;43.80;43.60;;;;;;4965370;29;20216;-76
2022/07/23 16:42:08;;;;;;;6.70;4.20;;;42.70;44.40;;;;;;4965423;28;20035;-75
2022/07/23 16:44:34;;;;;;;5.40;4.28;;;41.00;45.50;;;;;;4964925;29;20059;-75
2022/07/23 16:47:00;;;;;;;4.95;4.45;;;39.60;46.90;;;;;;4964917;28;20372;-75
2022/07/23 16:49:26;;;;;;;5.97;4.72;;;38.10;48.20;;;;;;4965601;29;20293;-76
2022/07/23 16:51:52;;;;;;;5.13;4.63;;;36.90;49.70;;;;;;4948209;29;20031;-76
2022/07/23 16:54:17;;;;;;;6.93;5.15;;;36.30;50.60;;;;;;4965694;29;20106;-76
2022/07/23 16:56:44;;;;;;;6.10;4.90;;;35.90;51.80;;;;;;4965053;29;20293;-75
2022/07/23 16:59:09;;;;;;;7.53;5.30;;;35.40;52.80;;;;;;4948273;29;20135;-75
2022/07/23 17:01:35;;;;;;;9.13;5.45;;;34.90;53.70;;;;;;4963918;28;20039;-75
2022/07/23 17:04:01;;;;;;;6.22;5.50;;;34.70;54.00;;;;;;4965018;29;20205;-76
2022/07/23 17:06:27;;;;;;;7.07;5.85;;;34.50;54.30;;;;;;4965494;29;20356;-75
2022/07/23 17:08:53;;;;;;;7.00;6.03;;;34.50;54.70;;;;;;4964910;29;20031;-78
2022/07/23 17:11:19;;;;;;;6.80;5.90;;;34.20;55.10;;;;;;4965277;29;20274;-74
2022/07/23 17:13:44;;;;;;;8.13;5.70;;;33.90;55.90;;;;;;4964535;29;20047;-76
2022/07/23 17:16:10;;;;;;;8.00;5.82;;;33.70;56.10;;;;;;4947109;29;20043;-75
2022/07/23 17:18:36;;;;;;;8.95;6.30;;;33.60;56.50;;;;;;4964159;29;20022;-73
2022/07/23 17:21:03;;;;;;;6.80;5.95;;;33.30;56.60;;;;;;4964594;29;20035;-74
2022/07/23 17:23:29;;;;;;;7.53;6.10;;;33.20;57.30;;;;;;4964644;29;20217;-74
2022/07/23 17:25:55;;;;;;;6.60;5.70;;;33.20;57.10;;;;;;4964214;29;20033;-74
2022/07/23 17:28:21;;;;;;;8.18;6.32;;;33.20;57.20;;;;;;4964543;29;20027;-74
2022/07/23 17:30:46;;;;;;;6.53;5.78;;;33.70;56.50;;;;;;4963703;29;20035;-74
2022/07/23 17:33:12;;;;;;;6.38;5.57;;;33.60;56.40;;;;;;4964472;29;20090;-74
2022/07/23 17:35:39;;;;;;;6.68;6.00;;;33.90;56.20;;;;;;4964408;29;20027;-75
2022/07/23 17:38:05;;;;;;;8.10;6.10;;;34.30;55.60;;;;;;4964854;29;20062;-75
2022/07/23 17:40:32;;;;;;;9.05;5.85;;;34.00;56.30;;;;;;4964319;29;20039;-74
2022/07/23 17:42:57;;;;;;;7.40;6.28;;;34.00;56.10;;;;;;4964644;29;20031;-75
2022/07/23 17:45:24;;;;;;;7.80;5.93;;;34.10;55.80;;;;;;4962372;28;20062;-75
2022/07/23 17:47:50;;;;;;;7.82;6.22;;;34.50;55.40;;;;;;4963964;29;20046;-74
2022/07/23 17:50:16;;;;;;;7.45;6.63;;;34.40;55.30;;;;;;4964570;29;20035;-74
2022/07/23 17:52:52;;;;;;;6.32;5.72;;;33.90;56.20;;;;;;4963355;28;20043;-73
2022/07/23 17:55:20;;;;;;;8.10;6.43;;;33.30;57.00;;;;;;4964654;29;20042;-74
2022/07/23 17:57:46;;;;;;;7.10;6.27;;;32.80;58.20;;;;;;4961865;28;20087;-74